Time;durP1;ratioP1;P1;durP2;ratioP2;P2;SDS_P1;SDS_P2;PMS_P1;PMS_P2;Temp;Humidity;BMP_temperature;BMP_pressure;BME280_temperature;BME280_humidity;BME280_pressure;Samples;Min_cycle;Max_cycle;Signal;HPM_P1;HPM_P2
2023/07/19 00:02:10;;;;;;;12.95;4.45;;;;;;;23.16;46.51;101006.59;4898413;28;99048;-66
2023/07/19 00:04:36;;;;;;;8.75;3.63;;;;;;;23.08;47.59;101008.22;4900917;28;99338;-67
2023/07/19 00:07:05;;;;;;;6.80;3.63;;;;;;;22.99;48.17;101009.81;4899069;28;98548;-67
2023/07/19 00:09:32;;;;;;;10.93;3.90;;;;;;;23.03;48.52;101011.31;4903034;28;98671;-67
2023/07/19 00:11:58;;;;;;;9.52;3.85;;;;;;;22.89;49.11;101001.66;4899817;28;98821;-67
2023/07/19 00:14:25;;;;;;;8.48;4.25;;;;;;;22.91;49.32;100990.75;4901873;28;98818;-66
2023/07/19 00:16:51;;;;;;;9.65;4.53;;;;;;;22.75;49.47;100996.56;4900580;28;97567;-66
2023/07/19 00:19:17;;;;;;;6.18;3.58;;;;;;;22.62;49.86;101002.06;4902036;28;98699;-66
2023/07/19 00:21:44;;;;;;;6.43;3.35;;;;;;;22.63;49.52;100995.69;4898700;28;99056;-66
2023/07/19 00:24:12;;;;;;;8.15;3.95;;;;;;;22.28;50.78;100992.31;4899723;28;100108;-66
2023/07/19 00:26:38;;;;;;;8.48;3.67;;;;;;;22.90;48.98;100987.22;4900204;28;98692;-66
2023/07/19 00:29:04;;;;;;;10.25;4.22;;;;;;;22.62;49.57;100999.38;4900066;28;97669;-67
2023/07/19 00:31:31;;;;;;;8.50;3.90;;;;;;;22.86;48.46;100992.97;4899986;28;101030;-66
2023/07/19 00:33:57;;;;;;;8.50;4.03;;;;;;;22.55;49.28;101000.00;4900017;28;99568;-66
2023/07/19 00:36:24;;;;;;;6.50;3.65;;;;;;;22.74;49.02;100993.97;4902537;28;99942;-67
2023/07/19 00:38:51;;;;;;;8.25;4.70;;;;;;;22.68;48.25;100995.31;4901863;28;99466;-65
2023/07/19 00:41:19;;;;;;;6.22;3.80;;;;;;;22.67;47.70;100978.28;4900436;28;98930;-67
2023/07/19 00:43:48;;;;;;;7.78;3.50;;;;;;;22.62;47.48;100988.59;4900977;28;98788;-68
2023/07/19 00:46:14;;;;;;;7.38;3.88;;;;;;;22.65;48.50;100974.88;4901421;28;98446;-66
2023/07/19 00:48:42;;;;;;;6.70;3.83;;;;;;;22.62;49.08;100976.97;4900415;28;97945;-66
2023/07/19 00:51:08;;;;;;;7.90;3.78;;;;;;;22.63;48.93;100966.06;4899645;28;99493;-66
2023/07/19 00:53:35;;;;;;;9.68;4.15;;;;;;;22.58;48.92;100968.25;4900868;28;98999;-66
2023/07/19 00:56:02;;;;;;;12.90;4.30;;;;;;;22.63;49.15;100971.47;4901055;28;97735;-66
2023/07/19 00:58:31;;;;;;;7.05;3.83;;;;;;;22.24;49.94;100974.69;4899948;28;98682;-66
2023/07/19 01:00:58;;;;;;;9.60;4.10;;;;;;;22.35;49.66;100972.00;4900647;28;98913;-67
2023/07/19 01:03:25;;;;;;;6.85;3.80;;;;;;;22.51;49.75;100972.44;4900025;28;98860;-66
2023/07/19 01:05:51;;;;;;;6.50;3.80;;;;;;;22.41;49.79;100968.78;4900612;28;96906;-67
2023/07/19 01:08:18;;;;;;;6.75;3.50;;;;;;;22.55;49.12;100973.06;4901608;28;99050;-66
2023/07/19 01:10:45;;;;;;;10.07;3.67;;;;;;;22.42;49.11;100961.59;4900052;28;99070;-67
2023/07/19 01:13:12;;;;;;;7.03;3.20;;;;;;;22.50;49.08;100965.38;4896884;28;99966;-69
2023/07/19 01:15:41;;;;;;;6.00;3.80;;;;;;;22.46;49.01;100966.59;4898917;28;98928;-67
2023/07/19 01:18:07;;;;;;;7.35;3.55;;;;;;;22.33;49.67;100956.94;4900078;28;96984;-67
2023/07/19 01:20:34;;;;;;;18.25;10.45;;;;;;;22.52;48.78;100958.00;4900458;28;100951;-68
2023/07/19 01:23:02;;;;;;;10.73;3.72;;;;;;;22.20;48.93;100960.63;4898648;28;98334;-68
2023/07/19 01:25:29;;;;;;;7.50;3.13;;;;;;;22.19;48.81;100958.03;4898179;28;98897;-68
2023/07/19 01:27:55;;;;;;;9.00;3.20;;;;;;;22.09;49.11;100960.63;4897437;28;97767;-68
2023/07/19 01:30:22;;;;;;;6.53;3.55;;;;;;;22.07;49.90;100954.50;4899838;28;99136;-69
2023/07/19 01:32:49;;;;;;;5.63;3.30;;;;;;;21.96;50.75;100956.34;4900682;28;99759;-67
2023/07/19 01:35:16;;;;;;;6.07;3.20;;;;;;;21.85;51.15;100952.66;4899801;28;96870;-68
2023/07/19 01:37:42;;;;;;;5.15;3.03;;;;;;;21.99;50.97;100940.81;4899583;28;96857;-67
2023/07/19 01:40:11;;;;;;;8.55;3.50;;;;;;;22.01;51.18;100943.38;4897700;28;101825;-66
2023/07/19 01:42:38;;;;;;;6.25;3.40;;;;;;;21.97;50.92;100948.16;4899664;28;99589;-67
2023/07/19 01:45:05;;;;;;;6.13;3.58;;;;;;;21.76;51.16;100942.63;4900243;28;97079;-67
2023/07/19 01:47:31;;;;;;;6.57;2.83;;;;;;;21.82;51.03;100942.13;4898634;28;97169;-67
2023/07/19 01:49:58;;;;;;;9.68;3.35;;;;;;;21.71;51.78;100950.19;4899342;28;98723;-67
2023/07/19 01:52:24;;;;;;;5.97;3.03;;;;;;;21.93;51.13;100951.16;4897315;28;98853;-67
2023/07/19 01:54:51;;;;;;;4.40;2.90;;;;;;;21.73;51.02;100942.00;4899197;28;98597;-67
2023/07/19 01:57:19;;;;;;;5.70;2.60;;;;;;;21.77;51.61;100948.84;4899063;28;96911;-68
2023/07/19 01:59:45;;;;;;;9.05;3.03;;;;;;;21.65;52.04;100944.44;4899656;28;101239;-67
2023/07/19 02:02:11;;;;;;;5.82;2.90;;;;;;;21.78;50.69;100935.28;4898603;28;98906;-67
2023/07/19 02:04:38;;;;;;;6.80;3.20;;;;;;;21.71;51.22;100942.13;4898720;28;99578;-67
2023/07/19 02:07:05;;;;;;;5.85;2.83;;;;;;;21.72;50.68;100935.78;4899517;28;97752;-66
2023/07/19 02:09:31;;;;;;;5.05;2.55;;;;;;;21.59;50.80;100934.19;4899944;28;98874;-66
2023/07/19 02:11:58;;;;;;;4.90;3.40;;;;;;;21.91;49.63;100927.09;4895302;28;99012;-65
2023/07/19 02:14:25;;;;;;;5.78;2.95;;;;;;;21.87;49.50;100933.69;4898886;28;96928;-66
2023/07/19 02:16:52;;;;;;;6.53;2.88;;;;;;;21.66;49.90;100921.97;4899140;28;97241;-67
2023/07/19 02:19:18;;;;;;;6.65;2.95;;;;;;;21.82;49.52;100917.94;4898612;28;99456;-66
2023/07/19 02:21:45;;;;;;;10.00;3.00;;;;;;;21.74;49.50;100914.97;4896442;28;97646;-66
2023/07/19 02:24:11;;;;;;;11.45;2.53;;;;;;;21.84;49.32;100918.66;4898271;28;97009;-67
2023/07/19 02:26:37;;;;;;;10.48;3.00;;;;;;;21.72;49.69;100913.41;4897046;28;98413;-68
2023/07/19 02:29:04;;;;;;;7.75;2.38;;;;;;;21.79;50.29;100915.47;4897259;28;99553;-68
2023/07/19 02:31:31;;;;;;;6.75;2.30;;;;;;;21.67;51.13;100911.06;4897833;28;99614;-68
2023/07/19 02:33:58;;;;;;;5.40;2.63;;;;;;;21.68;50.87;100912.78;4898799;28;98579;-69
2023/07/19 02:36:24;;;;;;;5.25;2.42;;;;;;;21.70;50.72;100905.44;4898372;28;96939;-67
2023/07/19 02:38:51;;;;;;;7.13;2.60;;;;;;;21.94;49.82;100910.69;4898960;28;98689;-68
2023/07/19 02:41:17;;;;;;;5.20;2.45;;;;;;;22.03;50.13;100906.47;4896138;28;99155;-68
2023/07/19 02:43:43;;;;;;;5.75;2.83;;;;;;;21.81;50.53;100897.38;4900657;28;99537;-67
2023/07/19 02:46:10;;;;;;;5.13;2.85;;;;;;;22.01;49.77;100889.56;4899468;28;97944;-69
2023/07/19 02:48:38;;;;;;;4.22;2.80;;;;;;;22.30;48.73;100882.69;4897939;28;99058;-69
2023/07/19 02:51:04;;;;;;;5.45;2.38;;;;;;;22.17;48.92;100872.06;4898246;28;98902;-68
2023/07/19 02:53:30;;;;;;;4.50;2.03;;;;;;;22.17;48.77;100881.97;4898448;28;97736;-67
2023/07/19 02:55:57;;;;;;;6.97;2.13;;;;;;;21.97;49.00;100885.44;4899507;28;96981;-67
2023/07/19 02:58:24;;;;;;;4.95;2.53;;;;;;;21.96;49.77;100883.72;4898036;28;99154;-67
2023/07/19 03:00:53;;;;;;;8.38;2.75;;;;;;;22.10;49.75;100884.31;4899047;28;98605;-67
2023/07/19 03:03:20;;;;;;;8.05;2.55;;;;;;;22.11;50.03;100883.34;4899034;28;98418;-67
2023/07/19 03:05:48;;;;;;;6.97;2.38;;;;;;;22.14;49.90;100893.84;4896400;28;99227;-67
2023/07/19 03:08:14;;;;;;;3.90;2.55;;;;;;;22.00;50.75;100895.94;4896111;28;99318;-66
2023/07/19 03:10:41;;;;;;;5.80;2.50;;;;;;;22.14;49.90;100899.22;4899165;28;99700;-67
2023/07/19 03:13:09;;;;;;;4.25;2.30;;;;;;;22.24;49.21;100897.50;4898174;28;96800;-66
2023/07/19 03:15:35;;;;;;;6.10;2.42;;;;;;;22.39;47.88;100886.44;4898010;28;97430;-66
2023/07/19 03:18:02;;;;;;;8.48;2.70;;;;;;;22.50;47.01;100889.97;4898116;28;98548;-67
2023/07/19 03:20:29;;;;;;;8.90;2.25;;;;;;;22.46;47.46;100890.34;4897991;28;99403;-67
2023/07/19 03:22:57;;;;;;;5.07;2.28;;;;;;;22.53;47.11;100889.69;4900503;28;98014;-67
2023/07/19 03:25:24;;;;;;;6.03;2.20;;;;;;;22.49;47.23;100888.25;4899002;28;99018;-67
2023/07/19 03:27:51;;;;;;;5.07;2.28;;;;;;;22.59;46.24;100891.03;4896376;28;99416;-67
2023/07/19 03:30:18;;;;;;;3.30;1.92;;;;;;;22.55;46.52;100889.59;4900336;28;98808;-67
2023/07/19 03:32:44;;;;;;;7.03;2.30;;;;;;;22.27;47.81;100891.00;4897949;28;97810;-67
2023/07/19 03:35:11;;;;;;;6.15;2.30;;;;;;;22.53;47.49;100887.00;4900298;28;96987;-67
2023/07/19 03:37:37;;;;;;;9.75;2.30;;;;;;;22.65;47.42;100885.97;4901096;28;99195;-69
2023/07/19 03:40:07;;;;;;;6.10;2.35;;;;;;;22.61;47.56;100887.22;4902768;28;99198;-67
2023/07/19 03:42:33;;;;;;;8.60;2.47;;;;;;;22.58;47.51;100883.91;4904786;28;97820;-67
2023/07/19 03:44:59;;;;;;;6.40;2.20;;;;;;;22.73;46.64;100890.75;4902826;28;98700;-68
2023/07/19 03:47:26;;;;;;;7.40;2.83;;;;;;;22.73;46.60;100888.06;4900826;28;98979;-67
2023/07/19 03:49:52;;;;;;;14.75;2.80;;;;;;;22.80;47.17;100880.31;4900770;28;99337;-67
2023/07/19 03:52:22;;;;;;;8.70;2.10;;;;;;;22.70;47.77;100884.75;4899453;28;99943;-68
2023/07/19 03:54:50;;;;;;;4.55;1.95;;;;;;;22.79;47.74;100886.69;4901406;28;97758;-68
2023/07/19 03:57:18;;;;;;;5.07;2.00;;;;;;;22.75;47.46;100883.41;4900196;28;97428;-68
2023/07/19 03:59:45;;;;;;;5.40;1.92;;;;;;;22.89;47.63;100887.66;4902273;28;99146;-67
2023/07/19 04:02:11;;;;;;;5.82;2.15;;;;;;;22.60;48.11;100890.03;4899591;28;99072;-68
2023/07/19 04:04:38;;;;;;;6.47;2.30;;;;;;;22.83;47.92;100872.00;4901817;28;98619;-67
2023/07/19 04:07:06;;;;;;;8.13;2.50;;;;;;;23.14;46.97;100879.16;4900727;28;98981;-67
2023/07/19 04:09:32;;;;;;;6.15;2.13;;;;;;;23.24;46.39;100872.00;4901366;28;102656;-68
2023/07/19 04:11:58;;;;;;;4.20;2.30;;;;;;;23.23;46.32;100885.63;4899615;28;99585;-67
2023/07/19 04:14:26;;;;;;;4.63;2.00;;;;;;;23.28;45.43;100886.94;4898033;28;98989;-68
2023/07/19 04:16:52;;;;;;;4.78;1.88;;;;;;;23.35;44.85;100889.94;4901118;28;98246;-68
2023/07/19 04:19:19;;;;;;;2.47;1.60;;;;;;;23.58;42.83;100893.34;4901736;28;101022;-68
2023/07/19 04:21:45;;;;;;;4.80;1.40;;;;;;;23.50;40.55;100893.19;4901408;28;96962;-68
2023/07/19 04:24:12;;;;;;;4.10;1.42;;;;;;;23.35;41.17;100893.50;4899640;28;98487;-68
2023/07/19 04:26:38;;;;;;;2.67;1.48;;;;;;;23.33;40.89;100898.16;4900697;28;100264;-68
2023/07/19 04:29:04;;;;;;;4.35;1.33;;;;;;;23.54;40.03;100898.19;4900769;28;99131;-68
2023/07/19 04:31:32;;;;;;;4.85;1.40;;;;;;;23.67;39.31;100892.56;4900155;28;98404;-69
2023/07/19 04:33:58;;;;;;;2.03;1.13;;;;;;;23.77;38.50;100883.50;4902034;28;98910;-67
2023/07/19 04:36:25;;;;;;;4.68;1.65;;;;;;;23.66;38.66;100880.06;4903967;28;99130;-67
2023/07/19 04:38:51;;;;;;;8.23;1.88;;;;;;;23.56;38.58;100880.03;4901751;28;99324;-66
2023/07/19 04:41:17;;;;;;;7.78;1.35;;;;;;;23.69;38.49;100871.72;4900852;28;97470;-67
2023/07/19 04:43:44;;;;;;;3.33;1.45;;;;;;;23.76;37.85;100875.59;4900365;28;99083;-67
2023/07/19 04:46:10;;;;;;;2.85;1.50;;;;;;;23.79;37.89;100875.28;4899031;28;99425;-67
2023/07/19 04:48:38;;;;;;;3.60;1.52;;;;;;;23.75;38.26;100876.56;4901449;28;98151;-67
2023/07/19 04:51:06;;;;;;;3.78;1.30;;;;;;;23.79;39.02;100872.59;4900352;28;97495;-67
2023/07/19 04:53:32;;;;;;;3.67;1.50;;;;;;;23.80;40.32;100877.88;4900784;28;97718;-66
2023/07/19 04:55:59;;;;;;;3.70;1.90;;;;;;;24.14;39.60;100862.22;4900496;28;102139;-66
2023/07/19 04:58:25;;;;;;;3.45;1.60;;;;;;;24.21;39.20;100863.41;4898575;28;99133;-67
2023/07/19 05:00:52;;;;;;;5.10;1.90;;;;;;;24.16;39.31;100864.75;4898258;28;98604;-66
2023/07/19 05:03:18;;;;;;;9.48;2.05;;;;;;;24.10;39.63;100860.75;4898686;28;98644;-67
2023/07/19 05:05:47;;;;;;;7.00;1.50;;;;;;;23.94;39.06;100863.16;4901587;28;99597;-67
2023/07/19 05:08:13;;;;;;;7.78;1.98;;;;;;;24.49;38.67;100866.25;4898285;28;99319;-67
2023/07/19 05:10:40;;;;;;;4.32;1.40;;;;;;;24.48;38.32;100862.69;4898054;28;97650;-66
2023/07/19 05:13:07;;;;;;;5.20;1.50;;;;;;;24.54;38.36;100862.16;4897315;28;101463;-67
2023/07/19 05:15:34;;;;;;;4.65;1.95;;;;;;;24.62;37.55;100872.22;4898631;28;98554;-67
2023/07/19 05:18:01;;;;;;;7.30;1.98;;;;;;;24.59;37.62;100873.38;4898349;28;98733;-68
2023/07/19 05:20:27;;;;;;;7.10;1.90;;;;;;;24.47;38.00;100879.06;4897715;28;96972;-67
2023/07/19 05:22:55;;;;;;;7.78;1.98;;;;;;;24.56;38.11;100875.50;4898534;28;98717;-67
2023/07/19 05:25:22;;;;;;;6.88;1.92;;;;;;;24.44;38.58;100882.88;4895101;28;99471;-66
2023/07/19 05:27:48;;;;;;;16.25;2.60;;;;;;;24.26;38.29;100872.91;4896844;28;99459;-66
2023/07/19 05:30:15;;;;;;;58.63;5.40;;;;;;;24.52;37.73;100874.94;4894623;28;96861;-66
2023/07/19 05:32:41;;;;;;;26.60;3.20;;;;;;;24.67;37.14;100872.69;4897078;28;96902;-66
2023/07/19 05:35:08;;;;;;;4.13;1.20;;;;;;;24.78;37.57;100869.84;4894763;28;99952;-65
2023/07/19 05:37:34;;;;;;;4.60;1.65;;;;;;;24.95;37.53;100869.13;4897784;28;98673;-66
2023/07/19 05:40:04;;;;;;;1.60;1.20;;;;;;;24.67;37.49;100871.81;4898945;28;98213;-66
2023/07/19 05:42:31;;;;;;;2.70;1.52;;;;;;;24.77;36.98;100873.53;4898290;28;97543;-66
2023/07/19 05:44:57;;;;;;;3.03;1.60;;;;;;;24.92;35.42;100876.69;4905686;28;98970;-66
2023/07/19 05:47:23;;;;;;;6.00;3.80;;;;;;;25.10;35.13;100874.94;4904044;28;99722;-66
2023/07/19 05:49:50;;;;;;;4.60;1.50;;;;;;;25.02;35.17;100878.38;4908445;28;97346;-67
2023/07/19 05:52:16;;;;;;;3.53;1.30;;;;;;;24.94;35.72;100870.13;4906060;28;96835;-67
2023/07/19 05:54:43;;;;;;;4.97;1.42;;;;;;;25.18;36.21;100871.53;4902284;28;99407;-66
2023/07/19 05:57:11;;;;;;;5.40;1.67;;;;;;;25.29;34.83;100879.47;4905136;28;98817;-66
2023/07/19 05:59:37;;;;;;;2.33;1.25;;;;;;;25.33;34.83;100864.69;4907620;28;96770;-65
2023/07/19 06:02:05;;;;;;;2.10;1.08;;;;;;;25.20;33.31;100872.25;4901232;28;99013;-66
2023/07/19 06:04:32;;;;;;;4.80;1.25;;;;;;;25.49;33.21;100864.03;4903195;28;99746;-65
2023/07/19 06:06:58;;;;;;;3.60;2.90;;;;;;;25.53;33.02;100866.31;4907154;28;98849;-66
2023/07/19 06:09:24;;;;;;;3.20;1.48;;;;;;;25.68;33.12;100862.16;4909850;28;97196;-65
2023/07/19 06:11:53;;;;;;;5.35;1.70;;;;;;;25.54;33.62;100861.75;4906653;28;98809;-65
2023/07/19 06:14:21;;;;;;;5.90;2.00;;;;;;;25.88;33.16;100853.94;4908735;28;99308;-64
2023/07/19 06:16:47;;;;;;;8.93;1.70;;;;;;;25.93;32.74;100857.06;4903666;28;99266;-66
2023/07/19 06:19:16;;;;;;;3.65;1.25;;;;;;;25.98;32.54;100862.88;4908539;28;96778;-66
2023/07/19 06:21:42;;;;;;;5.45;1.63;;;;;;;26.19;33.01;100853.47;4903718;28;96797;-66
2023/07/19 06:24:08;;;;;;;5.43;1.50;;;;;;;26.26;32.22;100853.75;4907402;28;99629;-67
2023/07/19 06:26:35;;;;;;;6.85;1.40;;;;;;;26.39;31.24;100864.19;4906599;28;97852;-67
2023/07/19 06:29:01;;;;;;;5.53;1.50;;;;;;;26.19;31.58;100856.16;4909203;28;97740;-65
2023/07/19 06:31:29;;;;;;;5.75;2.03;;;;;;;26.05;31.25;100855.84;4905149;28;97525;-64
2023/07/19 06:33:55;;;;;;;5.63;1.27;;;;;;;25.89;32.08;100852.94;4904193;28;98429;-65
2023/07/19 06:36:22;;;;;;;4.18;1.73;;;;;;;26.00;32.13;100858.16;4906524;28;99144;-64
2023/07/19 06:38:49;;;;;;;6.05;1.40;;;;;;;25.97;32.13;100872.00;4906272;28;97682;-64
2023/07/19 06:41:15;;;;;;;3.13;2.17;;;;;;;26.37;31.80;100858.97;4907422;28;97417;-64
2023/07/19 06:43:42;;;;;;;9.20;6.47;;;;;;;26.30;32.07;100848.88;4904934;28;99356;-65
2023/07/19 06:46:09;;;;;;;4.55;1.50;;;;;;;26.39;32.56;100847.94;4905638;28;97611;-67
2023/07/19 06:48:36;;;;;;;4.57;2.22;;;;;;;26.14;32.31;100844.94;4909256;28;96691;-65
2023/07/19 06:51:04;;;;;;;5.03;2.00;;;;;;;26.36;31.64;100834.72;4909760;28;97084;-64
2023/07/19 06:53:30;;;;;;;5.68;1.80;;;;;;;26.45;31.79;100831.94;4902387;28;99310;-65
2023/07/19 06:55:58;;;;;;;4.65;1.35;;;;;;;26.40;31.60;100836.97;4908110;28;98735;-65
2023/07/19 06:58:25;;;;;;;2.92;1.58;;;;;;;26.76;31.08;100835.13;4907708;28;97277;-64
2023/07/19 07:00:54;;;;;;;6.68;1.88;;;;;;;27.32;30.64;100831.97;4907082;28;96913;-64
2023/07/19 07:03:21;;;;;;;5.45;1.60;;;;;;;28.07;29.53;100824.91;4907639;28;98911;-65
2023/07/19 07:05:49;;;;;;;7.93;2.17;;;;;;;28.61;28.80;100821.81;4909391;28;99049;-74
2023/07/19 07:08:18;;;;;;;8.10;1.77;;;;;;;28.45;28.77;100820.75;4909106;28;97142;-74
2023/07/19 07:10:44;;;;;;;2.55;1.75;;;;;;;28.22;29.01;100821.59;4905616;28;97252;-74
2023/07/19 07:13:11;;;;;;;9.48;1.80;;;;;;;28.27;28.83;100825.50;4911677;28;98633;-74
2023/07/19 07:15:37;;;;;;;4.88;1.70;;;;;;;28.26;29.47;100828.38;4914122;28;102125;-74
2023/07/19 07:18:06;;;;;;;4.63;1.98;;;;;;;27.81;30.42;100826.00;4911723;28;96855;-73
2023/07/19 07:20:35;;;;;;;8.02;2.20;;;;;;;27.84;30.71;100815.63;4911519;28;96967;-74
2023/07/19 07:23:02;;;;;;;6.18;1.95;;;;;;;27.73;30.51;100826.81;4910489;28;99188;-73
2023/07/19 07:25:29;;;;;;;8.15;2.03;;;;;;;27.56;30.82;100816.91;4911055;28;99559;-73
2023/07/19 07:27:56;;;;;;;12.82;2.80;;;;;;;27.74;30.41;100820.38;4910074;28;96979;-73
2023/07/19 07:30:23;;;;;;;8.10;2.22;;;;;;;28.03;29.59;100809.09;4916646;28;96867;-74
2023/07/19 07:32:49;;;;;;;6.03;2.10;;;;;;;27.99;29.82;100803.16;4916711;28;102217;-74
2023/07/19 07:35:16;;;;;;;5.30;2.10;;;;;;;28.14;29.46;100808.81;4916199;28;98848;-74
2023/07/19 07:37:42;;;;;;;10.75;2.15;;;;;;;28.42;29.45;100803.97;4914664;28;97627;-74
2023/07/19 07:40:11;;;;;;;8.88;2.33;;;;;;;28.75;29.47;100802.13;4908110;28;97556;-74
2023/07/19 07:42:38;;;;;;;5.22;2.20;;;;;;;28.87;28.94;100804.34;4907667;28;99362;-75
2023/07/19 07:45:06;;;;;;;5.38;2.00;;;;;;;29.18;28.13;100809.88;4915546;28;97597;-73
2023/07/19 07:47:32;;;;;;;5.35;2.35;;;;;;;29.13;28.21;100803.28;4910601;28;96835;-72
2023/07/19 07:50:02;;;;;;;10.70;2.00;;;;;;;29.01;28.10;100796.50;4913513;28;97766;-73
2023/07/19 07:52:29;;;;;;;3.33;1.88;;;;;;;29.30;27.84;100794.03;4909924;28;99066;-76
2023/07/19 07:54:55;;;;;;;4.65;1.55;;;;;;;29.25;28.15;100791.84;4915648;28;98775;-74
2023/07/19 07:57:23;;;;;;;7.25;1.77;;;;;;;29.51;27.50;100786.19;4911597;28;96828;-74
2023/07/19 07:59:49;;;;;;;5.20;1.63;;;;;;;29.71;27.86;100783.88;4910089;28;97381;-74
2023/07/19 08:02:15;;;;;;;5.05;2.28;;;;;;;29.47;27.98;100781.28;4906687;28;102461;-73
2023/07/19 08:04:42;;;;;;;3.50;1.98;;;;;;;29.25;27.62;100780.13;4902331;28;99022;-73
2023/07/19 08:07:08;;;;;;;5.30;2.25;;;;;;;29.01;28.02;100783.75;4905030;28;97838;-73
2023/07/19 08:09:35;;;;;;;3.95;1.85;;;;;;;28.91;28.46;100780.34;4913027;28;97637;-74
2023/07/19 08:12:04;;;;;;;2.83;1.95;;;;;;;28.72;28.31;100778.81;4911091;28;99089;-75
2023/07/19 08:14:32;;;;;;;7.40;1.75;;;;;;;28.99;28.43;100776.78;4910115;28;98985;-74
2023/07/19 08:16:58;;;;;;;7.10;2.05;;;;;;;29.05;28.74;100779.66;4909139;28;97697;-72
2023/07/19 08:19:25;;;;;;;6.68;1.95;;;;;;;29.31;28.63;100776.69;4909104;28;97126;-73
2023/07/19 08:21:51;;;;;;;5.03;1.75;;;;;;;29.19;29.17;100778.09;4910972;28;98677;-73
2023/07/19 08:24:17;;;;;;;27.55;3.78;;;;;;;29.15;28.84;100783.00;4906268;28;98871;-74
2023/07/19 08:26:44;;;;;;;4.70;1.88;;;;;;;29.28;28.46;100782.47;4904473;28;96922;-73
2023/07/19 08:29:11;;;;;;;5.18;2.17;;;;;;;28.87;28.55;100781.72;4907886;28;97438;-73
2023/07/19 08:31:39;;;;;;;3.08;1.80;;;;;;;29.38;28.43;100780.44;4906566;28;99406;-72
2023/07/19 08:34:05;;;;;;;5.13;2.13;;;;;;;29.52;27.92;100773.44;4906295;28;99083;-72
2023/07/19 08:36:32;;;;;;;3.05;1.75;;;;;;;29.43;28.16;100772.59;4903548;28;96847;-74
2023/07/19 08:38:58;;;;;;;4.22;2.40;;;;;;;29.57;28.28;100779.19;4906107;28;97174;-73
2023/07/19 08:41:30;;;;;;;7.78;3.50;;;;;;;29.57;28.69;100771.88;4904841;28;98976;-73
2023/07/19 08:43:57;;;;;;;5.35;1.77;;;;;;;29.53;27.57;100777.84;4905536;28;98817;-74
2023/07/19 08:46:23;;;;;;;5.65;1.80;;;;;;;29.52;27.62;100774.28;4907607;28;96815;-74
2023/07/19 08:48:51;;;;;;;11.63;1.60;;;;;;;29.48;27.49;100772.91;4908527;28;97053;-72
2023/07/19 08:51:19;;;;;;;2.45;1.60;;;;;;;29.95;27.27;100774.75;4908010;28;99041;-73
2023/07/19 08:53:45;;;;;;;5.65;1.92;;;;;;;30.16;27.35;100766.81;4905278;28;98965;-74
2023/07/19 08:56:13;;;;;;;5.03;2.20;;;;;;;29.58;27.69;100775.44;4907675;28;96852;-73
2023/07/19 08:58:40;;;;;;;3.05;1.45;;;;;;;29.73;27.26;100776.41;4905933;28;98751;-72
2023/07/19 09:01:07;;;;;;;6.18;1.95;;;;;;;29.25;26.71;100769.22;4905391;28;99005;-73
2023/07/19 09:03:34;;;;;;;3.83;1.80;;;;;;;29.26;27.12;100773.66;4906338;28;98746;-73
2023/07/19 09:06:02;;;;;;;4.32;2.00;;;;;;;29.30;26.98;100775.00;4908415;28;96848;-74
2023/07/19 09:08:36;;;;;;;4.93;1.70;;;;;;;29.30;27.17;100767.69;4906781;28;96995;-72
2023/07/19 09:11:03;;;;;;;5.07;1.63;;;;;;;29.32;26.59;100767.50;4903163;28;100161;-74
2023/07/19 09:13:31;;;;;;;6.80;1.80;;;;;;;29.30;27.04;100770.41;4908760;28;99193;-74
2023/07/19 09:15:57;;;;;;;3.78;1.60;;;;;;;29.02;27.66;100765.53;4906851;28;98028;-74
2023/07/19 09:18:28;;;;;;;5.18;1.85;;;;;;;28.97;27.28;100755.19;4908254;28;97273;-73
2023/07/19 09:20:58;;;;;;;3.65;1.55;;;;;;;28.99;26.88;100774.06;4906527;28;99295;-75
2023/07/19 09:23:26;;;;;;;4.47;1.90;;;;;;;29.11;27.26;100764.50;4908330;28;98730;-74
2023/07/19 09:25:53;;;;;;;3.28;1.73;;;;;;;29.19;26.69;100757.19;4905065;28;97647;-74
2023/07/19 09:28:21;;;;;;;4.97;1.60;;;;;;;28.92;27.15;100761.16;4904836;28;97253;-74
2023/07/19 09:30:54;;;;;;;3.45;1.60;;;;;;;28.87;27.20;100754.53;4907720;28;98231;-71
2023/07/19 09:33:21;;;;;;;4.90;1.50;;;;;;;29.41;26.85;100752.00;4901820;28;99016;-74
2023/07/19 09:35:52;;;;;;;6.47;1.85;;;;;;;29.38;26.62;100747.78;4906173;28;97560;-74
2023/07/19 09:38:20;;;;;;;4.40;1.58;;;;;;;29.84;26.68;100737.00;4908273;28;97304;-73
2023/07/19 09:40:48;;;;;;;3.33;1.50;;;;;;;29.87;25.85;100737.50;4904776;28;101989;-73
2023/07/19 09:43:16;;;;;;;4.53;1.75;;;;;;;29.92;26.15;100735.13;4908025;28;99040;-73
2023/07/19 09:45:43;;;;;;;5.97;1.50;;;;;;;29.99;26.50;100736.09;4904477;28;97733;-73
2023/07/19 09:48:10;;;;;;;5.70;1.73;;;;;;;29.99;26.09;100733.38;4908897;28;97174;-73
2023/07/19 09:50:39;;;;;;;5.13;1.63;;;;;;;30.12;26.68;100737.38;4904005;28;99615;-73
2023/07/19 09:53:10;;;;;;;5.03;1.80;;;;;;;30.33;26.13;100734.81;4904827;28;99033;-73
2023/07/19 09:55:37;;;;;;;11.80;1.80;;;;;;;30.31;25.95;100723.28;4905340;28;97574;-73
2023/07/19 09:58:07;;;;;;;3.95;1.85;;;;;;;30.48;25.67;100714.75;4904935;28;96854;-72
2023/07/19 10:00:35;;;;;;;3.20;1.90;;;;;;;30.63;25.44;100724.91;4900981;28;97665;-73
2023/07/19 10:03:02;;;;;;;10.30;1.92;;;;;;;30.95;26.07;100710.06;4904907;28;97651;-72
2023/07/19 10:05:29;;;;;;;6.00;1.73;;;;;;;31.30;25.22;100717.56;4906808;28;96994;-73
2023/07/19 10:08:02;;;;;;;7.82;2.50;;;;;;;31.46;25.07;100713.75;4905010;28;97021;-72
2023/07/19 10:10:35;;;;;;;5.38;1.70;;;;;;;31.73;24.75;100710.34;4902679;28;99710;-74
2023/07/19 10:13:02;;;;;;;3.50;1.80;;;;;;;31.56;24.58;100708.84;4901535;28;99436;-65
2023/07/19 10:15:29;;;;;;;3.90;1.80;;;;;;;31.06;24.27;100715.09;4906566;28;96997;-65
2023/07/19 10:17:58;;;;;;;5.07;1.40;;;;;;;30.45;25.22;100711.56;4908259;28;97050;-65
2023/07/19 10:20:28;;;;;;;5.72;2.25;;;;;;;30.34;24.47;100718.28;4905976;28;98941;-65
2023/07/19 10:22:56;;;;;;;6.38;2.03;;;;;;;30.54;24.65;100717.81;4906582;28;102386;-65
2023/07/19 10:25:25;;;;;;;3.03;1.90;;;;;;;30.99;24.47;100705.91;4906466;28;97285;-65
2023/07/19 10:28:03;;;;;;;4.45;1.60;;;;;;;31.09;24.39;100707.38;4904011;28;96944;-65
2023/07/19 10:30:50;;;;;;;6.10;1.80;;;;;;;31.08;24.75;100705.69;4907084;28;97658;-66
2023/07/19 10:33:19;;;;;;;2.17;1.60;;;;;;;31.14;24.09;100706.81;4902502;28;99493;-65
2023/07/19 10:35:47;;;;;;;3.83;2.00;;;;;;;30.96;25.11;100703.59;4903278;28;96819;-65
2023/07/19 10:38:15;;;;;;;3.45;1.83;;;;;;;30.58;24.56;100700.06;4904818;28;97225;-65
2023/07/19 10:40:44;;;;;;;5.10;1.88;;;;;;;30.61;24.76;100697.81;4900738;28;98205;-64
2023/07/19 10:43:10;;;;;;;3.75;1.88;;;;;;;30.96;24.87;100695.41;4901894;28;98772;-65
2023/07/19 10:45:38;;;;;;;3.38;1.52;;;;;;;31.50;24.39;100690.50;4901899;28;97157;-65
2023/07/19 10:48:06;;;;;;;4.03;1.67;;;;;;;31.43;23.76;100686.84;4903091;28;97038;-65
2023/07/19 10:50:32;;;;;;;4.10;1.70;;;;;;;31.51;24.23;100694.91;4902641;28;101905;-65
2023/07/19 10:52:59;;;;;;;2.45;1.80;;;;;;;31.40;23.97;100689.94;4901553;28;101710;-64
2023/07/19 10:55:28;;;;;;;6.00;1.98;;;;;;;30.95;23.87;100686.38;4904024;28;96911;-64
2023/07/19 10:57:54;;;;;;;4.15;1.70;;;;;;;31.00;24.63;100683.06;4908588;28;101012;-64
2023/07/19 11:00:21;;;;;;;2.35;1.60;;;;;;;31.00;24.67;100686.66;4904372;28;99506;-66
2023/07/19 11:02:48;;;;;;;3.47;1.70;;;;;;;31.45;23.94;100687.47;4904188;28;97744;-65
2023/07/19 11:05:16;;;;;;;4.32;1.70;;;;;;;31.32;23.79;100690.88;4902119;28;99989;-64
2023/07/19 11:07:43;;;;;;;3.60;1.58;;;;;;;31.79;23.79;100679.50;4908332;28;96883;-64
2023/07/19 11:10:10;;;;;;;6.03;1.92;;;;;;;31.51;23.87;100686.72;4901994;28;99306;-64
2023/07/19 11:12:37;;;;;;;5.50;1.90;;;;;;;30.70;24.90;100683.06;4903754;28;97836;-65
2023/07/19 11:15:08;;;;;;;2.75;1.60;;;;;;;30.93;25.23;100674.78;4906654;28;96777;-65
2023/07/19 11:17:36;;;;;;;8.68;1.67;;;;;;;31.15;24.85;100671.16;4906214;28;97259;-64
2023/07/19 11:20:03;;;;;;;8.23;1.65;;;;;;;30.94;24.79;100664.72;4898813;28;98908;-64
2023/07/19 11:22:31;;;;;;;2.15;1.73;;;;;;;30.83;24.65;100674.22;4904649;28;99008;-64
2023/07/19 11:24:57;;;;;;;4.13;2.00;;;;;;;31.08;24.86;100672.09;4902751;28;97196;-65